Time;durP1;ratioP1;P1;durP2;ratioP2;P2;SDS_P1;SDS_P2;PMS_P1;PMS_P2;Temp;Humidity;BMP_temperature;BMP_pressure;BME280_temperature;BME280_humidity;BME280_pressure;Samples;Min_cycle;Max_cycle;Signal;HPM_P1;HPM_P2
2022/06/22 00:02:12;;;;;;;6.68;4.13;;;;;;;;;;5027322;28;20040;-64
2022/06/22 00:04:37;;;;;;;;;;;;;;;;;;5010042;28;20025;-62
2022/06/22 00:07:10;;;;;;;3.25;2.95;;;;;;;;;;5027105;28;20007;-62
2022/06/22 00:09:38;;;;;;;6.18;3.85;;;;;;;;;;5026650;28;20022;-62
2022/06/22 00:12:04;;;;;;;4.75;4.10;;;;;;;;;;5027047;28;20349;-63
2022/06/22 00:14:44;;;;;;;5.82;3.55;;;;;;;;;;5026681;28;20037;-64
2022/06/22 00:17:16;;;;;;;5.65;3.45;;;;;;;;;;5026934;28;20030;-64
2022/06/22 00:19:42;;;;;;;4.35;3.47;;;;;;;;;;5026682;28;20060;-64
2022/06/22 00:22:17;;;;;;;3.95;3.42;;;;;;;;;;5026840;28;20502;-64
2022/06/22 00:24:43;;;;;;;3.85;3.45;;;;;;;;;;5026826;28;20507;-64
2022/06/22 00:27:19;;;;;;;3.33;3.13;;;;;;;;;;5025430;28;20025;-64
2022/06/22 00:29:46;;;;;;;4.07;3.38;;;;;;;;;;5008713;28;20399;-62
2022/06/22 00:32:25;;;;;;;3.72;3.38;;;;;;;;;;5026431;28;20104;-64
2022/06/22 00:34:51;;;;;;;3.20;2.85;;;;;;;;;;5026805;28;20112;-62
2022/06/22 00:37:18;;;;;;;3.20;2.90;;;;;;;;;;5026728;28;20557;-62
2022/06/22 00:39:50;;;;;;;3.15;2.95;;;;;;;;;;5008997;28;20040;-62
2022/06/22 00:42:15;;;;;;;3.97;2.80;;;;;;;;;;5026854;28;20424;-64
2022/06/22 00:44:50;;;;;;;3.03;2.70;;;;;;;;;;5009021;28;20116;-64
2022/06/22 00:47:27;;;;;;;3.00;2.80;;;;;;;;;;5026743;28;20399;-62
2022/06/22 00:49:56;;;;;;;2.80;2.60;;;;;;;;;;5026631;28;20084;-62
2022/06/22 00:52:30;;;;;;;2.90;2.70;;;;;;;;;;5026608;28;20033;-62
2022/06/22 00:54:55;;;;;;;3.25;2.90;;;;;;;;;;5026266;28;20061;-63
2022/06/22 00:57:31;;;;;;;3.28;3.08;;;;;;;;;;5027009;28;20045;-62
2022/06/22 00:59:59;;;;;;;2.97;2.67;;;;;;;;;;5026736;28;20048;-62
2022/06/22 01:02:31;;;;;;;2.70;2.50;;;;;;;;;;5026092;28;20033;-62
2022/06/22 01:05:00;;;;;;;3.05;2.85;;;;;;;;;;5026451;28;20031;-62
2022/06/22 01:07:28;;;;;;;5.55;3.35;;;;;;;;;;5026675;28;20030;-64
2022/06/22 01:09:59;;;;;;;5.38;4.00;;;;;;;;;;5026476;28;20033;-64
2022/06/22 01:12:29;;;;;;;5.47;4.22;;;;;;;;;;5025942;28;20045;-65
2022/06/22 01:15:01;;;;;;;2.70;2.60;;;;;;;;;;5025819;28;20021;-64
2022/06/22 01:17:29;;;;;;;3.75;2.83;;;;;;;;;;5026130;28;20088;-62
2022/06/22 01:20:03;;;;;;;3.42;3.20;;;;;;;;;;5007566;28;20045;-64
2022/06/22 01:22:48;;;;;;;4.38;3.95;;;;;;;;;;5027858;28;20037;-64
2022/06/22 01:25:13;;;;;;;3.83;3.53;;;;;;;;;;5029391;28;20490;-64
2022/06/22 01:27:43;;;;;;;5.97;4.68;;;;;;;;;;5029741;28;20025;-64
2022/06/22 01:30:28;;;;;;;5.22;4.10;;;;;;;;;;5030031;28;20472;-64
2022/06/22 01:32:55;;;;;;;4.97;3.70;;;;;;;;;;5012207;28;20094;-64
2022/06/22 01:35:26;;;;;;;4.00;3.67;;;;;;;;;;5029728;28;20032;-64
2022/06/22 01:37:52;;;;;;;4.03;3.60;;;;;;;;;;5012030;28;20037;-64
2022/06/22 01:40:19;;;;;;;3.80;3.40;;;;;;;;;;5029080;28;20091;-64
2022/06/22 01:43:04;;;;;;;4.00;3.22;;;;;;;;;;5011773;28;20121;-64
2022/06/22 01:45:39;;;;;;;3.40;3.10;;;;;;;;;;5028835;28;20060;-64
2022/06/22 01:48:24;;;;;;;3.53;3.25;;;;;;;;;;5011595;28;20061;-64
2022/06/22 01:51:08;;;;;;;6.63;4.13;;;;;;;;;;5029362;28;20454;-64
2022/06/22 01:53:37;;;;;;;5.22;3.58;;;;;;;;;;5029401;28;20040;-64
2022/06/22 01:56:10;;;;;;;5.97;3.83;;;;;;;;;;5028964;28;20083;-64
2022/06/22 01:58:39;;;;;;;7.70;4.10;;;;;;;;;;5029091;28;20041;-64
2022/06/22 02:01:16;;;;;;;5.30;3.90;;;;;;;;;;5029076;28;20034;-64
2022/06/22 02:03:45;;;;;;;3.85;3.40;;;;;;;;;;5029113;28;20397;-64
2022/06/22 02:09:08;;;;;;;2.83;2.63;;;;;;;;;;5029166;28;20517;-63
2022/06/22 02:11:41;;;;;;;3.03;2.67;;;;;;;;;;5029334;28;20017;-63
2022/06/22 02:14:11;;;;;;;2.53;2.38;;;;;;;;;;5029010;28;20033;-63
2022/06/22 02:16:37;;;;;;;;;;;;;;;;;;5029599;28;20041;-63
2022/06/22 02:19:03;;;;;;;2.63;2.43;;;;;;;;;;5028861;28;19913;-63
2022/06/22 02:21:35;;;;;;;3.72;3.28;;;;;;;;;;5028752;28;20384;-63
2022/06/22 02:24:04;;;;;;;5.32;4.38;;;;;;;;;;5028849;28;20118;-64
2022/06/22 02:26:48;;;;;;;3.83;3.53;;;;;;;;;;5011006;28;20055;-63
2022/06/22 02:29:15;;;;;;;3.67;3.00;;;;;;;;;;5028791;28;20475;-63
2022/06/22 02:31:41;;;;;;;3.55;3.25;;;;;;;;;;5011125;28;20028;-64
2022/06/22 02:34:06;;;;;;;4.18;3.28;;;;;;;;;;5010526;28;20765;-64
2022/06/22 02:36:36;;;;;;;3.28;2.97;;;;;;;;;;5028682;28;20022;-64
2022/06/22 02:39:03;;;;;;;2.92;2.63;;;;;;;;;;5028492;28;20104;-64
2022/06/22 02:44:30;;;;;;;2.35;2.22;;;;;;;;;;5028646;28;20128;-64
2022/06/22 02:46:57;;;;;;;2.42;2.33;;;;;;;;;;5028444;28;20025;-64
2022/06/22 02:49:29;;;;;;;2.83;2.60;;;;;;;;;;5010735;28;20022;-64
2022/06/22 02:51:55;;;;;;;2.70;2.50;;;;;;;;;;5010777;28;20040;-64
2022/06/22 02:54:26;;;;;;;3.28;2.78;;;;;;;;;;5028423;28;20056;-63
2022/06/22 02:56:51;;;;;;;;;;;;;;;;;;5028929;28;20029;-64
2022/06/22 02:59:16;;;;;;;2.58;2.42;;;;;;;;;;5027805;28;19963;-64
2022/06/22 03:01:42;;;;;;;2.78;2.53;;;;;;;;;;5027951;28;20558;-69
2022/06/22 03:04:12;;;;;;;3.55;2.88;;;;;;;;;;5028477;28;20025;-64
2022/06/22 03:06:41;;;;;;;3.42;3.10;;;;;;;;;;5028006;28;20045;-69
2022/06/22 03:09:07;;;;;;;3.83;2.83;;;;;;;;;;5028104;28;20509;-63
2022/06/22 03:11:36;;;;;;;2.60;2.40;;;;;;;;;;5028063;28;20276;-63
2022/06/22 03:14:19;;;;;;;2.63;2.42;;;;;;;;;;5028101;28;20036;-63
2022/06/22 03:16:47;;;;;;;3.60;2.45;;;;;;;;;;5027781;28;20048;-63
2022/06/22 03:19:15;;;;;;;3.15;2.60;;;;;;;;;;5027893;28;20029;-63
2022/06/22 03:21:41;;;;;;;2.47;2.30;;;;;;;;;;5010017;28;20030;-63
2022/06/22 03:24:06;;;;;;;3.10;2.67;;;;;;;;;;5027702;28;20111;-63
2022/06/22 03:26:41;;;;;;;2.35;2.22;;;;;;;;;;5027535;28;20506;-62
2022/06/22 03:29:25;;;;;;;4.38;2.42;;;;;;;;;;5027759;28;20033;-63
2022/06/22 03:31:57;;;;;;;2.45;2.30;;;;;;;;;;5027740;28;20029;-70
2022/06/22 03:34:26;;;;;;;3.13;2.38;;;;;;;;;;5027633;28;20472;-69
2022/06/22 03:36:58;;;;;;;2.33;2.22;;;;;;;;;;5027590;28;20029;-69
2022/06/22 03:39:26;;;;;;;3.30;2.13;;;;;;;;;;5027261;28;20041;-69
2022/06/22 03:42:08;;;;;;;3.97;2.25;;;;;;;;;;5009621;28;20029;-69
2022/06/22 03:44:46;;;;;;;2.30;2.20;;;;;;;;;;5026635;28;20042;-63
2022/06/22 03:47:17;;;;;;;2.13;2.03;;;;;;;;;;5027176;28;20083;-70
2022/06/22 03:49:42;;;;;;;;;;;;;;;;;;5009244;28;20549;-69
2022/06/22 03:52:17;;;;;;;3.17;2.92;;;;;;;;;;5027037;28;19909;-69
2022/06/22 03:54:53;;;;;;;4.53;3.88;;;;;;;;;;5028508;28;20033;-63
2022/06/22 03:57:20;;;;;;;4.53;3.88;;;;;;;;;;5033299;28;20033;-63
2022/06/22 03:59:46;;;;;;;4.35;3.90;;;;;;;;;;5033564;28;20028;-63
2022/06/22 04:02:12;;;;;;;4.38;3.22;;;;;;;;;;5033285;28;20075;-63
2022/06/22 04:04:38;;;;;;;4.47;3.75;;;;;;;;;;5030420;28;20025;-63
2022/06/22 04:07:05;;;;;;;4.78;4.00;;;;;;;;;;5030645;28;20481;-63
2022/06/22 04:09:31;;;;;;;3.90;3.50;;;;;;;;;;5031347;28;20030;-64
2022/06/22 04:12:00;;;;;;;3.47;3.08;;;;;;;;;;5030694;28;20032;-63
2022/06/22 04:14:32;;;;;;;3.38;3.17;;;;;;;;;;5030557;28;20076;-64
2022/06/22 04:17:03;;;;;;;2.97;2.75;;;;;;;;;;5031198;28;20033;-63
2022/06/22 04:19:40;;;;;;;4.22;3.17;;;;;;;;;;5032909;28;20416;-63
2022/06/22 04:22:08;;;;;;;4.82;4.32;;;;;;;;;;5032551;28;20336;-63
2022/06/22 04:24:57;;;;;;;3.97;3.55;;;;;;;;;;5032952;28;20082;-63
2022/06/22 04:27:35;;;;;;;5.32;4.20;;;;;;;;;;5026779;28;20045;-63
2022/06/22 04:30:13;;;;;;;3.90;3.42;;;;;;;;;;5032235;28;20521;-70
2022/06/22 04:32:41;;;;;;;3.50;3.20;;;;;;;;;;4997994;28;20029;-70
2022/06/22 04:35:28;;;;;;;3.42;3.13;;;;;;;;;;5032802;28;20359;-70
2022/06/22 04:37:57;;;;;;;3.40;3.10;;;;;;;;;;5015197;28;20053;-70
2022/06/22 04:40:24;;;;;;;3.30;3.05;;;;;;;;;;5031114;28;20038;-70
2022/06/22 04:42:59;;;;;;;3.60;3.30;;;;;;;;;;5031841;28;20710;-70
2022/06/22 04:45:27;;;;;;;4.05;3.47;;;;;;;;;;5032210;28;20390;-71
2022/06/22 04:47:54;;;;;;;4.13;3.33;;;;;;;;;;5031178;28;20028;-70
2022/06/22 04:50:19;;;;;;;3.00;2.80;;;;;;;;;;5032875;28;20498;-71
2022/06/22 04:52:48;;;;;;;3.40;3.10;;;;;;;;;;5031985;28;20029;-71
2022/06/22 04:55:16;;;;;;;3.88;3.33;;;;;;;;;;5032159;28;20037;-72
2022/06/22 04:57:42;;;;;;;3.13;2.92;;;;;;;;;;5036058;28;20029;-71
2022/06/22 05:00:18;;;;;;;3.90;3.15;;;;;;;;;;5036091;28;20029;-71
2022/06/22 05:02:45;;;;;;;3.65;2.90;;;;;;;;;;5035886;28;20040;-71
2022/06/22 05:05:11;;;;;;;2.83;2.63;;;;;;;;;;5035975;28;20056;-71
2022/06/22 05:07:41;;;;;;;2.97;2.67;;;;;;;;;;5018210;28;20053;-71
2022/06/22 05:10:16;;;;;;;3.35;2.92;;;;;;;;;;5035874;28;20021;-71
2022/06/22 05:13:09;;;;;;;3.28;2.97;;;;;;;;;;5035874;28;20029;-71
2022/06/22 05:15:38;;;;;;;2.90;2.70;;;;;;;;;;5035838;28;20030;-72
2022/06/22 05:18:09;;;;;;;3.42;3.13;;;;;;;;;;5035767;28;20026;-72
2022/06/22 05:20:36;;;;;;;;;;;;;;;;;;5036142;28;20037;-72
2022/06/22 05:23:04;;;;;;;3.97;2.55;;;;;;;;;;5035598;28;19909;-72
2022/06/22 05:25:30;;;;;;;5.20;3.13;;;;;;;;;;5035630;28;20112;-73
2022/06/22 05:28:15;;;;;;;3.58;2.92;;;;;;;;;;5035576;28;20093;-73
2022/06/22 05:30:42;;;;;;;4.25;3.08;;;;;;;;;;5035597;28;20057;-71
2022/06/22 05:33:10;;;;;;;4.88;3.10;;;;;;;;;;5035846;28;20459;-63
2022/06/22 05:35:37;;;;;;;5.90;3.30;;;;;;;;;;5018057;28;20040;-63
2022/06/22 05:38:07;;;;;;;5.30;3.63;;;;;;;;;;5018413;28;20022;-64
2022/06/22 05:40:34;;;;;;;3.67;3.38;;;;;;;;;;5036473;28;20053;-62
2022/06/22 05:42:59;;;;;;;3.10;2.80;;;;;;;;;;5036709;28;20033;-63
2022/06/22 05:45:31;;;;;;;3.78;3.00;;;;;;;;;;5036514;28;20033;-63
2022/06/22 05:47:56;;;;;;;3.28;2.70;;;;;;;;;;5036279;28;20022;-64
2022/06/22 05:50:34;;;;;;;2.88;2.67;;;;;;;;;;5037018;28;20380;-63
2022/06/22 05:53:02;;;;;;;3.95;3.10;;;;;;;;;;5035589;28;20033;-62
2022/06/22 05:55:35;;;;;;;4.70;2.80;;;;;;;;;;5018491;28;20025;-62
2022/06/22 05:58:10;;;;;;;3.08;2.58;;;;;;;;;;5036277;28;20033;-62
2022/06/22 06:00:48;;;;;;;5.50;2.75;;;;;;;;;;5018020;28;20036;-62
2022/06/22 06:03:20;;;;;;;2.60;2.45;;;;;;;;;;5035942;28;20068;-62
2022/06/22 06:05:48;;;;;;;4.95;2.67;;;;;;;;;;5036038;28;20041;-62
2022/06/22 06:08:24;;;;;;;2.55;2.20;;;;;;;;;;5035174;28;20032;-64
2022/06/22 06:10:50;;;;;;;2.20;2.00;;;;;;;;;;5036111;28;20021;-62
2022/06/22 06:13:18;;;;;;;2.40;2.00;;;;;;;;;;5018051;28;20104;-62
2022/06/22 06:15:44;;;;;;;3.67;2.38;;;;;;;;;;5035982;28;20052;-64
2022/06/22 06:18:14;;;;;;;2.60;2.40;;;;;;;;;;5035982;28;20022;-64
2022/06/22 06:20:41;;;;;;;2.97;2.47;;;;;;;;;;5035707;28;20073;-64
2022/06/22 06:23:10;;;;;;;2.28;1.92;;;;;;;;;;5035517;28;20079;-64
2022/06/22 06:28:28;;;;;;;2.20;2.00;;;;;;;;;;5017786;28;20453;-62
2022/06/22 06:30:58;;;;;;;1.90;1.75;;;;;;;;;;5035506;28;20486;-63
2022/06/22 06:33:34;;;;;;;1.85;1.70;;;;;;;;;;5035725;28;20025;-63
2022/06/22 06:36:16;;;;;;;2.08;1.88;;;;;;;;;;5035618;28;20357;-64
2022/06/22 06:38:44;;;;;;;1.95;1.83;;;;;;;;;;5035611;28;20109;-62
2022/06/22 06:41:12;;;;;;;1.83;1.73;;;;;;;;;;5017448;28;20045;-64
2022/06/22 06:43:41;;;;;;;1.92;1.73;;;;;;;;;;5035453;28;20030;-64
2022/06/22 06:46:33;;;;;;;2.55;1.60;;;;;;;;;;5035172;28;20034;-64
2022/06/22 06:49:02;;;;;;;2.47;1.65;;;;;;;;;;5032920;28;20474;-62
2022/06/22 06:51:29;;;;;;;2.25;2.05;;;;;;;;;;5017693;28;20041;-62
2022/06/22 06:53:59;;;;;;;1.80;1.70;;;;;;;;;;5035314;28;20078;-64
2022/06/22 06:56:28;;;;;;;1.60;1.50;;;;;;;;;;5035264;28;20113;-64
2022/06/22 06:58:55;;;;;;;2.08;1.77;;;;;;;;;;5034928;28;20017;-64
2022/06/22 07:01:22;;;;;;;2.03;1.83;;;;;;;;;;5034840;28;20056;-64
2022/06/22 07:03:49;;;;;;;1.55;1.45;;;;;;;;;;5034743;28;20028;-64
2022/06/22 07:06:15;;;;;;;1.58;1.48;;;;;;;;;;5017092;28;20021;-63
2022/06/22 07:08:46;;;;;;;1.60;1.50;;;;;;;;;;5034730;28;20044;-64
2022/06/22 07:11:34;;;;;;;3.40;1.65;;;;;;;;;;5034975;28;20456;-64
2022/06/22 07:14:05;;;;;;;1.70;1.60;;;;;;;;;;5034922;28;20029;-63
2022/06/22 07:16:35;;;;;;;1.98;1.75;;;;;;;;;;5034580;28;20456;-63
2022/06/22 07:19:04;;;;;;;1.60;1.50;;;;;;;;;;5034047;28;20478;-65
2022/06/22 07:21:38;;;;;;;3.35;1.63;;;;;;;;;;5034406;28;20041;-62
2022/06/22 07:24:04;;;;;;;1.50;1.40;;;;;;;;;;5028236;23;20037;-71
2022/06/22 07:26:48;;;;;;;1.27;1.17;;;;;;;;;;5056263;23;20054;-62
2022/06/22 07:29:32;;;;;;;2.00;1.23;;;;;;;;;;5034898;28;20029;-63
2022/06/22 07:32:12;;;;;;;4.85;1.30;;;;;;;;;;5034837;28;20447;-63
2022/06/22 07:34:50;;;;;;;2.42;1.30;;;;;;;;;;5033009;28;20025;-62
2022/06/22 07:37:20;;;;;;;1.30;1.20;;;;;;;;;;5034476;28;20384;-62
2022/06/22 07:39:55;;;;;;;0.90;0.90;;;;;;;;;;5033547;28;20033;-62
2022/06/22 07:42:20;;;;;;;0.90;0.90;;;;;;;;;;5034053;28;20387;-62
2022/06/22 07:44:46;;;;;;;0.85;0.85;;;;;;;;;;5034134;28;20117;-62
2022/06/22 07:47:33;;;;;;;0.98;0.98;;;;;;;;;;5034048;28;20022;-64
2022/06/22 07:50:06;;;;;;;1.75;0.90;;;;;;;;;;5034271;28;20151;-64
2022/06/22 07:52:35;;;;;;;0.70;0.70;;;;;;;;;;5034315;28;20021;-64
2022/06/22 07:55:03;;;;;;;1.00;0.95;;;;;;;;;;5034322;28;20021;-64
2022/06/22 07:57:42;;;;;;;0.98;0.95;;;;;;;;;;5033944;28;20029;-62
2022/06/22 08:00:12;;;;;;;0.80;0.80;;;;;;;;;;5034175;28;20017;-62
2022/06/22 08:02:53;;;;;;;1.35;1.15;;;;;;;;;;5034123;28;20037;-62
2022/06/22 08:05:21;;;;;;;1.08;0.98;;;;;;;;;;5033777;28;20029;-64
2022/06/22 08:07:56;;;;;;;0.80;0.80;;;;;;;;;;5032526;28;20018;-64
2022/06/22 08:10:23;;;;;;;1.00;1.00;;;;;;;;;;5032551;28;20045;-62
2022/06/22 08:12:49;;;;;;;0.85;0.85;;;;;;;;;;5034030;28;20074;-64
2022/06/22 08:15:16;;;;;;;2.17;0.80;;;;;;;;;;5033662;28;20120;-64
2022/06/22 08:17:43;;;;;;;2.15;0.90;;;;;;;;;;5034262;28;20029;-64
2022/06/22 08:20:11;;;;;;;0.75;0.75;;;;;;;;;;5032532;28;20029;-64
2022/06/22 08:22:37;;;;;;;1.00;0.90;;;;;;;;;;5033826;28;20025;-64
2022/06/22 08:25:04;;;;;;;1.02;0.93;;;;;;;;;;5035234;28;20040;-64
2022/06/22 08:27:29;;;;;;;1.40;0.80;;;;;;;;;;5073818;28;20043;-64
2022/06/22 08:29:56;;;;;;;1.42;0.90;;;;;;;;;;5073830;28;20095;-63
2022/06/22 08:32:27;;;;;;;1.55;0.77;;;;;;;;;;5077294;28;20104;-63
2022/06/22 08:34:53;;;;;;;1.10;1.00;;;;;;;;;;5060099;28;20074;-65
2022/06/22 08:37:29;;;;;;;1.00;1.00;;;;;;;;;;5059648;28;20351;-64
2022/06/22 08:40:01;;;;;;;1.02;0.93;;;;;;;;;;5077807;28;20051;-62
2022/06/22 08:42:35;;;;;;;1.20;0.98;;;;;;;;;;5077704;28;20036;-64
2022/06/22 08:45:07;;;;;;;1.25;0.90;;;;;;;;;;5078010;28;20078;-64
2022/06/22 08:47:51;;;;;;;0.73;0.73;;;;;;;;;;5076151;28;20060;-62
2022/06/22 08:50:22;;;;;;;0.70;0.63;;;;;;;;;;5059792;28;20355;-63
2022/06/22 08:52:51;;;;;;;0.75;0.75;;;;;;;;;;5060011;28;20024;-63
2022/06/22 08:55:16;;;;;;;1.52;0.95;;;;;;;;;;5077465;28;20031;-63
2022/06/22 08:57:51;;;;;;;1.13;0.80;;;;;;;;;;5077754;28;20040;-63
2022/06/22 09:00:23;;;;;;;2.08;0.75;;;;;;;;;;5059181;28;20063;-63
2022/06/22 09:02:54;;;;;;;1.00;0.90;;;;;;;;;;5059729;28;20123;-63
2022/06/22 09:05:26;;;;;;;0.90;0.70;;;;;;;;;;5077317;28;20420;-63
2022/06/22 09:08:09;;;;;;;0.95;0.80;;;;;;;;;;5077535;28;20123;-62
2022/06/22 09:10:40;;;;;;;1.40;0.80;;;;;;;;;;5077203;28;20516;-62
2022/06/22 09:13:21;;;;;;;1.02;0.80;;;;;;;;;;5077134;28;20036;-63
2022/06/22 09:15:55;;;;;;;2.20;0.85;;;;;;;;;;5077121;28;20425;-62
2022/06/22 09:18:28;;;;;;;0.75;0.70;;;;;;;;;;5081975;22;20056;-64
2022/06/22 09:21:02;;;;;;;1.05;0.80;;;;;;;;;;5057038;28;20021;-70
2022/06/22 09:23:40;;;;;;;0.90;0.70;;;;;;;;;;5056874;28;20490;-70
2022/06/22 09:26:42;;;;;;;1.27;1.00;;;;;;;;;;5056636;28;20089;-70
2022/06/22 09:29:26;;;;;;;1.30;0.82;;;;;;;;;;5014808;28;20070;-70
2022/06/22 09:31:58;;;;;;;2.17;0.80;;;;;;;;;;5053169;28;20072;-70
2022/06/22 09:34:42;;;;;;;0.98;0.80;;;;;;;;;;5056484;28;20064;-70
2022/06/22 09:37:10;;;;;;;0.82;0.80;;;;;;;;;;5056767;28;20108;-70
2022/06/22 09:39:44;;;;;;;1.13;1.00;;;;;;;;;;5056688;28;20025;-70
2022/06/22 09:42:10;;;;;;;0.90;0.90;;;;;;;;;;5055173;28;20057;-70
2022/06/22 09:44:53;;;;;;;0.93;0.77;;;;;;;;;;5056214;28;20463;-70
2022/06/22 09:47:28;;;;;;;2.10;0.93;;;;;;;;;;5056492;28;20055;-70
2022/06/22 09:50:05;;;;;;;1.98;1.08;;;;;;;;;;5056166;28;20108;-70
2022/06/22 09:52:42;;;;;;;0.77;0.75;;;;;;;;;;5054973;28;20033;-70
2022/06/22 09:58:14;;;;;;;1.00;0.65;;;;;;;;;;5056232;28;20105;-70
2022/06/22 10:00:54;;;;;;;1.38;0.80;;;;;;;;;;5048722;28;20116;-70
2022/06/22 10:03:19;;;;;;;0.80;0.80;;;;;;;;;;5056168;28;20029;-68
2022/06/22 10:05:44;;;;;;;1.92;0.90;;;;;;;;;;5054735;28;20021;-70
2022/06/22 10:08:13;;;;;;;2.92;1.10;;;;;;;;;;5054495;28;20083;-70
2022/06/22 10:10:50;;;;;;;2.80;1.05;;;;;;;;;;5054541;28;20536;-70
2022/06/22 10:13:27;;;;;;;0.75;0.70;;;;;;;;;;5055751;28;20043;-70
2022/06/22 10:16:12;;;;;;;1.58;0.80;;;;;;;;;;5054679;28;20051;-70
2022/06/22 10:18:37;;;;;;;2.03;0.88;;;;;;;;;;5054277;28;20040;-70
2022/06/22 10:21:09;;;;;;;1.42;0.80;;;;;;;;;;5055801;28;20036;-70
2022/06/22 10:23:41;;;;;;;1.85;0.93;;;;;;;;;;5055451;28;20041;-70
2022/06/22 10:26:25;;;;;;;0.70;0.70;;;;;;;;;;5055426;28;20059;-70
2022/06/22 10:29:10;;;;;;;2.92;1.27;;;;;;;;;;5054239;28;20035;-70
2022/06/22 10:31:41;;;;;;;1.73;1.05;;;;;;;;;;5053063;28;20027;-69
2022/06/22 10:34:09;;;;;;;2.15;1.10;;;;;;;;;;5054305;28;20486;-71
2022/06/22 10:36:53;;;;;;;2.08;1.10;;;;;;;;;;5054290;28;20024;-74
2022/06/22 10:39:31;;;;;;;1.38;1.00;;;;;;;;;;5054351;28;20486;-73
2022/06/22 10:45:09;;;;;;;0.90;0.85;;;;;;;;;;5053986;28;20039;-74
2022/06/22 10:47:44;;;;;;;0.88;0.88;;;;;;;;;;5054024;28;20460;-74
2022/06/22 10:50:10;;;;;;;1.13;0.80;;;;;;;;;;5053970;28;20025;-73
2022/06/22 10:52:54;;;;;;;0.52;0.52;;;;;;;;;;5053979;28;20028;-73
2022/06/22 10:55:34;;;;;;;2.47;0.60;;;;;;;;;;5052410;28;20132;-72
2022/06/22 10:58:05;;;;;;;1.30;0.93;;;;;;;;;;5052627;28;20119;-73
2022/06/22 11:00:38;;;;;;;1.40;0.70;;;;;;;;;;5053820;28;20029;-73
2022/06/22 11:03:08;;;;;;;11.82;1.17;;;;;;;;;;5053630;28;20100;-74
2022/06/22 11:05:40;;;;;;;2.70;1.10;;;;;;;;;;5052486;28;20025;-74
2022/06/22 11:08:06;;;;;;;0.70;0.70;;;;;;;;;;5052448;28;20021;-75
2022/06/22 11:10:31;;;;;;;1.13;0.63;;;;;;;;;;5053827;28;20028;-74
2022/06/22 11:13:03;;;;;;;0.80;0.80;;;;;;;;;;5052764;28;20086;-65
2022/06/22 11:15:33;;;;;;;1.70;0.93;;;;;;;;;;5053802;28;20044;-66
2022/06/22 11:18:11;;;;;;;1.60;0.90;;;;;;;;;;5052146;28;20020;-65
2022/06/22 11:20:51;;;;;;;1.80;0.98;;;;;;;;;;5053488;28;20033;-67
2022/06/22 11:23:33;;;;;;;0.75;0.75;;;;;;;;;;5053256;28;20494;-65
2022/06/22 11:32:36;;;;;;;1.83;0.73;;;;;;;;;;5011249;28;20034;-64
2022/06/22 11:35:23;;;;;;;1.17;0.73;;;;;;;;;;5053139;28;20430;-67
2022/06/22 11:38:07;;;;;;;0.77;0.77;;;;;;;;;;5053250;28;20056;-65
2022/06/22 11:40:32;;;;;;;2.05;1.10;;;;;;;;;;5053038;28;20021;-66
2022/06/22 11:43:04;;;;;;;1.40;0.98;;;;;;;;;;5052941;28;20036;-65
2022/06/22 11:45:51;;;;;;;1.85;0.88;;;;;;;;;;5051803;28;20029;-65
2022/06/22 11:48:24;;;;;;;3.00;1.40;;;;;;;;;;5052889;28;20544;-61
2022/06/22 11:51:06;;;;;;;1.60;0.98;;;;;;;;;;5052861;28;20037;-61
2022/06/22 11:53:32;;;;;;;1.67;0.88;;;;;;;;;;5052822;28;20025;-63
2022/06/22 11:56:23;;;;;;;1.67;0.90;;;;;;;;;;5052833;28;20382;-62
2022/06/22 11:59:00;;;;;;;3.42;1.20;;;;;;;;;;5036830;28;20048;-62
2022/06/22 12:01:25;;;;;;;1.85;0.90;;;;;;;;;;5052766;28;20036;-61
2022/06/22 12:04:15;;;;;;;1.65;0.85;;;;;;;;;;5051417;28;20484;-61
2022/06/22 12:06:40;;;;;;;1.10;0.90;;;;;;;;;;5052149;28;20060;-61
2022/06/22 12:09:31;;;;;;;3.20;1.10;;;;;;;;;;5051475;28;20397;-61
2022/06/22 12:11:56;;;;;;;;;;;;;;;;;;5054366;28;20037;-60
2022/06/22 12:17:09;;;;;;;1.90;0.90;;;;;;;;;;5053642;28;20032;-61
2022/06/22 12:19:53;;;;;;;1.20;0.95;;;;;;;;;;5052156;28;20106;-61
2022/06/22 12:22:37;;;;;;;1.65;1.00;;;;;;;;;;5052299;28;20064;-61
2022/06/22 12:25:22;;;;;;;3.53;0.90;;;;;;;;;;5054119;28;20126;-61
2022/06/22 12:28:08;;;;;;;0.93;0.90;;;;;;;;;;5054038;28;20115;-62
2022/06/22 12:30:58;;;;;;;1.02;0.93;;;;;;;;;;5053430;28;20029;-61
2022/06/22 12:33:27;;;;;;;3.38;1.05;;;;;;;;;;5053728;28;20025;-61
2022/06/22 12:36:11;;;;;;;1.85;1.00;;;;;;;;;;5053492;28;20028;-61
2022/06/22 12:38:40;;;;;;;0.98;0.90;;;;;;;;;;5054015;28;20455;-62
2022/06/22 12:41:14;;;;;;;1.77;1.10;;;;;;;;;;5053711;28;20032;-61
2022/06/22 12:43:48;;;;;;;2.75;1.27;;;;;;;;;;5053578;28;20066;-62
2022/06/22 12:46:13;;;;;;;1.02;0.88;;;;;;;;;;5052470;28;20475;-61
2022/06/22 12:48:54;;;;;;;1.35;1.00;;;;;;;;;;5053597;28;20057;-61
2022/06/22 12:51:38;;;;;;;1.63;1.15;;;;;;;;;;5053565;28;20052;-61
2022/06/22 12:54:03;;;;;;;1.38;0.98;;;;;;;;;;5052660;28;20104;-61
2022/06/22 12:56:35;;;;;;;1.52;0.93;;;;;;;;;;5053249;28;20498;-61
2022/06/22 12:59:08;;;;;;;1.15;0.63;;;;;;;;;;5053221;28;20076;-61
2022/06/22 13:01:34;;;;;;;3.45;0.90;;;;;;;;;;5053489;28;20114;-63
2022/06/22 13:04:06;;;;;;;0.70;0.50;;;;;;;;;;5053753;23;20057;-60
2022/06/22 13:06:32;;;;;;;0.82;0.60;;;;;;;;;;5033755;28;20061;-62
2022/06/22 13:08:58;;;;;;;1.50;0.80;;;;;;;;;;5033757;28;20041;-61
2022/06/22 13:11:25;;;;;;;3.15;0.65;;;;;;;;;;5033203;28;20383;-63
2022/06/22 13:13:53;;;;;;;1.00;0.73;;;;;;;;;;5033705;28;20029;-62
2022/06/22 13:16:43;;;;;;;1.77;0.80;;;;;;;;;;5033651;28;20034;-61
2022/06/22 13:19:28;;;;;;;3.33;0.82;;;;;;;;;;5019130;28;20033;-63
2022/06/22 13:22:03;;;;;;;1.73;0.93;;;;;;;;;;5037057;28;20033;-60
2022/06/22 13:24:35;;;;;;;1.58;0.90;;;;;;;;;;5036921;28;20120;-62
2022/06/22 13:27:20;;;;;;;0.82;0.73;;;;;;;;;;5036673;28;20175;-61
2022/06/22 13:29:50;;;;;;;0.90;0.70;;;;;;;;;;5037213;28;20033;-63
2022/06/22 13:32:17;;;;;;;1.00;0.90;;;;;;;;;;5018826;28;20033;-61
2022/06/22 13:34:45;;;;;;;0.82;0.70;;;;;;;;;;5036842;28;20562;-61
2022/06/22 13:37:28;;;;;;;1.08;0.70;;;;;;;;;;5036802;28;20099;-62
2022/06/22 13:39:59;;;;;;;1.55;0.60;;;;;;;;;;5037037;28;20041;-61
2022/06/22 13:42:37;;;;;;;0.90;0.50;;;;;;;;;;5036373;28;20399;-61
2022/06/22 13:45:06;;;;;;;0.98;0.82;;;;;;;;;;5018608;28;20372;-60
2022/06/22 13:47:35;;;;;;;1.33;0.85;;;;;;;;;;5036367;28;20017;-61
2022/06/22 13:50:26;;;;;;;1.88;0.80;;;;;;;;;;5036261;28;20459;-61
2022/06/22 13:52:56;;;;;;;1.75;1.00;;;;;;;;;;5036761;28;20383;-61
2022/06/22 13:55:24;;;;;;;2.17;0.90;;;;;;;;;;5036498;28;20116;-61
2022/06/22 13:57:56;;;;;;;2.78;0.85;;;;;;;;;;5036423;28;20038;-61
2022/06/22 14:00:23;;;;;;;1.20;0.73;;;;;;;;;;5018388;28;20064;-61
2022/06/22 14:02:58;;;;;;;0.70;0.68;;;;;;;;;;5035810;28;20070;-62
2022/06/22 14:05:30;;;;;;;1.75;0.80;;;;;;;;;;5036321;28;20060;-62
2022/06/22 14:07:55;;;;;;;1.48;0.70;;;;;;;;;;5036517;28;20026;-62
2022/06/22 14:10:31;;;;;;;0.68;0.68;;;;;;;;;;5035942;28;20447;-62
2022/06/22 14:13:16;;;;;;;0.73;0.57;;;;;;;;;;5036158;28;20029;-62
2022/06/22 14:15:43;;;;;;;1.10;0.80;;;;;;;;;;5036362;28;20033;-61
2022/06/22 14:18:12;;;;;;;0.88;0.70;;;;;;;;;;5035799;28;20033;-61
2022/06/22 14:20:41;;;;;;;2.08;0.68;;;;;;;;;;5018642;28;20420;-61
2022/06/22 14:23:10;;;;;;;0.73;0.65;;;;;;;;;;5035914;28;20025;-63
2022/06/22 14:25:46;;;;;;;1.48;0.60;;;;;;;;;;5035612;28;20471;-62
2022/06/22 14:28:30;;;;;;;0.50;0.50;;;;;;;;;;5017253;28;20025;-61
2022/06/22 14:31:19;;;;;;;0.50;0.50;;;;;;;;;;5036082;28;20479;-61
2022/06/22 14:33:56;;;;;;;2.53;0.60;;;;;;;;;;5007387;28;20089;-60
2022/06/22 14:36:29;;;;;;;1.85;0.63;;;;;;;;;;5035699;28;20033;-60
2022/06/22 14:39:05;;;;;;;3.00;0.90;;;;;;;;;;5035401;28;20029;-62
2022/06/22 14:41:41;;;;;;;0.73;0.65;;;;;;;;;;5035629;28;20060;-60
2022/06/22 14:44:16;;;;;;;1.38;1.00;;;;;;;;;;5016927;28;20567;-61
2022/06/22 14:47:01;;;;;;;0.80;0.80;;;;;;;;;;5035220;28;20025;-61
2022/06/22 14:49:33;;;;;;;0.98;0.80;;;;;;;;;;4994702;28;20399;-61
2022/06/22 14:52:11;;;;;;;0.80;0.80;;;;;;;;;;5035389;28;20037;-62
2022/06/22 14:54:39;;;;;;;0.70;0.65;;;;;;;;;;5035371;28;20037;-63
2022/06/22 14:57:09;;;;;;;1.55;0.50;;;;;;;;;;5017264;28;20383;-63
2022/06/22 14:59:35;;;;;;;;;;;;;;;;;;5017787;28;20033;-63
2022/06/22 15:02:06;;;;;;;1.05;0.60;;;;;;;;;;5034969;28;20404;-63
2022/06/22 15:04:38;;;;;;;0.63;0.63;;;;;;;;;;5016900;28;20483;-63
2022/06/22 15:07:12;;;;;;;0.60;0.60;;;;;;;;;;5035415;28;20029;-63
2022/06/22 15:09:42;;;;;;;0.80;0.57;;;;;;;;;;5035060;28;20036;-62
2022/06/22 15:14:53;;;;;;;1.10;0.65;;;;;;;;;;5034972;28;20037;-62
2022/06/22 15:17:45;;;;;;;0.70;0.60;;;;;;;;;;5034607;28;20086;-62
2022/06/22 15:20:23;;;;;;;1.30;0.60;;;;;;;;;;4987394;28;20073;-61
2022/06/22 15:22:53;;;;;;;1.02;0.77;;;;;;;;;;5034717;28;20468;-61
2022/06/22 15:25:41;;;;;;;1.70;0.73;;;;;;;;;;5034493;28;20030;-61
2022/06/22 15:28:16;;;;;;;0.98;0.70;;;;;;;;;;5023787;28;20037;-63
2022/06/22 15:30:47;;;;;;;0.90;0.80;;;;;;;;;;5034652;28;20037;-61
2022/06/22 15:33:18;;;;;;;3.03;0.50;;;;;;;;;;5034650;28;20041;-62
2022/06/22 15:35:44;;;;;;;0.90;0.60;;;;;;;;;;5034614;28;20029;-61
2022/06/22 15:38:19;;;;;;;0.77;0.77;;;;;;;;;;5034423;28;20029;-61
2022/06/22 15:40:54;;;;;;;1.00;0.77;;;;;;;;;;5033623;28;20450;-61
2022/06/22 15:43:41;;;;;;;1.10;0.90;;;;;;;;;;5034378;28;20040;-62
2022/06/22 15:46:11;;;;;;;0.70;0.70;;;;;;;;;;5034689;28;20021;-63